createdAt,value
2022-08-20T00:02:46.339Z,95048.41
2022-08-20T00:05:35.747Z,95040.94
2022-08-20T00:08:22.302Z,95040.19
2022-08-20T00:11:10.889Z,95046.09
2022-08-20T00:13:59.633Z,95038.63
2022-08-20T00:16:45.634Z,95035.13
2022-08-20T00:19:31.800Z,95040.25
2022-08-20T00:22:17.779Z,95031.59
2022-08-20T00:25:05.852Z,95035.56
2022-08-20T00:27:51.529Z,95031.22
2022-08-20T00:30:37.627Z,95021.38
2022-08-20T00:33:24.669Z,95021.44
2022-08-20T00:36:12.392Z,95013.16
2022-08-20T00:38:58.256Z,95024.63
2022-08-20T00:41:44.171Z,95015.25
2022-08-20T00:44:30.283Z,95017.63
2022-08-20T00:47:16.395Z,95016.84
2022-08-20T00:50:02.293Z,95026.34
2022-08-20T00:52:51.030Z,95023.63
2022-08-20T00:55:37.305Z,95029.94
2022-08-20T00:58:23.443Z,95030.34
2022-08-20T01:01:09.819Z,95031.94
2022-08-20T01:03:56.720Z,95023.28
2022-08-20T01:06:42.699Z,95024.84
2022-08-20T01:09:49.396Z,95014.66
2022-08-20T01:12:35.294Z,95008.72
2022-08-20T01:15:26.968Z,95016.28
2022-08-20T01:18:25.133Z,95017.88
2022-08-20T01:21:10.935Z,95014.75
2022-08-20T01:24:18.300Z,95017.16
2022-08-20T01:27:05.837Z,95014.00
2022-08-20T01:29:52.416Z,95002.94
2022-08-20T01:32:38.526Z,94988.00
2022-08-20T01:35:26.034Z,94974.53
2022-08-20T01:38:12.693Z,94963.50
2022-08-20T01:41:17.187Z,94954.13
2022-08-20T01:44:03.469Z,94974.63
2022-08-20T01:46:51.574Z,94995.56
2022-08-20T01:49:44.044Z,94993.22
2022-08-20T01:52:41.518Z,94986.59
2022-08-20T01:55:27.898Z,94977.16
2022-08-20T01:58:13.870Z,94967.69
2022-08-20T02:00:59.987Z,94962.63
2022-08-20T02:03:46.073Z,94962.25
2022-08-20T02:06:33.837Z,94965.38
2022-08-20T02:09:19.909Z,94976.44
2022-08-20T02:12:09.027Z,94966.19
2022-08-20T02:14:56.048Z,94944.19
2022-08-20T02:17:48.314Z,94946.53
2022-08-20T02:20:34.657Z,94942.59
2022-08-20T02:23:23.052Z,94939.47
2022-08-20T02:26:09.809Z,94944.19
2022-08-20T02:28:56.085Z,94945.03
2022-08-20T02:32:24.809Z,94969.13
2022-08-20T02:34:53.837Z,94990.78
2022-08-20T02:37:42.219Z,94994.75
2022-08-20T02:40:30.909Z,94997.53
2022-08-20T02:43:18.867Z,95002.22
2022-08-20T02:46:07.064Z,94998.25
2022-08-20T02:48:53.539Z,94971.03
2022-08-20T02:51:39.546Z,94952.09
2022-08-20T02:54:25.361Z,94972.66
2022-08-20T02:57:15.471Z,94985.31
2022-08-20T03:00:02.125Z,94984.53
2022-08-20T03:02:48.696Z,94971.91
2022-08-20T03:05:34.507Z,94956.13
2022-08-20T03:08:22.000Z,94946.75
2022-08-20T03:11:08.030Z,94955.44
2022-08-20T03:13:53.792Z,94970.91
2022-08-20T03:16:40.721Z,94955.53
2022-08-20T03:19:27.504Z,94948.06
2022-08-20T03:22:13.441Z,94954.81
2022-08-20T03:24:59.305Z,94957.97
2022-08-20T03:27:45.657Z,94950.06
2022-08-20T03:30:32.445Z,94938.66
2022-08-20T03:33:20.255Z,94935.88
2022-08-20T03:36:07.917Z,94924.88
2022-08-20T03:38:53.686Z,94931.19
2022-08-20T03:41:39.638Z,94944.59
2022-08-20T03:44:26.773Z,94936.75
2022-08-20T03:47:12.651Z,94926.53
2022-08-20T03:50:02.540Z,94932.06
2022-08-20T03:52:48.371Z,94934.75
2022-08-20T03:55:34.673Z,94926.47
2022-08-20T03:58:20.373Z,94919.75
2022-08-20T04:01:07.404Z,94911.50
2022-08-20T04:04:15.444Z,94905.94
2022-08-20T04:07:11.752Z,94905.56
2022-08-20T04:09:57.923Z,94923.28
2022-08-20T04:12:52.691Z,94924.09
2022-08-20T04:15:39.226Z,94922.91
2022-08-20T04:18:26.317Z,94924.09
2022-08-20T04:21:12.257Z,94922.50
2022-08-20T04:23:58.645Z,94921.34
2022-08-20T04:26:45.064Z,94935.13
2022-08-20T04:29:32.619Z,94936.69
2022-08-20T04:32:18.968Z,94935.50
2022-08-20T04:35:07.491Z,94927.69
2022-08-20T04:38:06.710Z,94949.31
2022-08-20T04:40:58.381Z,94943.78
2022-08-20T04:43:44.093Z,94950.91
2022-08-20T04:46:31.773Z,94953.25
2022-08-20T04:49:17.525Z,94967.81
2022-08-20T04:52:03.361Z,94968.63
2022-08-20T04:54:49.504Z,94967.00
2022-08-20T04:57:38.291Z,94965.06
2022-08-20T05:00:24.165Z,94962.66
2022-08-20T05:03:10.042Z,94964.22
2022-08-20T05:05:57.041Z,94976.06
2022-08-20T05:08:43.087Z,94972.91
2022-08-20T05:11:34.342Z,94961.88
2022-08-20T05:14:22.517Z,94976.03
2022-08-20T05:17:08.609Z,94976.81
2022-08-20T05:19:54.723Z,94985.44
2022-08-20T05:22:40.908Z,94991.34
2022-08-20T05:25:30.682Z,95005.16
2022-08-20T05:28:26.895Z,95023.69
2022-08-20T05:31:12.983Z,95015.41
2022-08-20T05:33:58.952Z,94958.59
2022-08-20T05:36:49.224Z,94947.47
2022-08-20T05:39:37.591Z,94935.63
2022-08-20T05:42:23.551Z,94935.63
2022-08-20T05:45:11.353Z,94923.00
2022-08-20T05:47:58.760Z,94938.75
2022-08-20T05:50:51.470Z,94954.88
2022-08-20T05:53:37.724Z,94964.81
2022-08-20T05:56:26.852Z,94960.94
2022-08-20T05:59:14.130Z,94990.94
2022-08-20T06:02:00.185Z,95010.69
2022-08-20T06:04:45.810Z,95012.25
2022-08-20T06:07:42.150Z,95013.81
2022-08-20T06:10:33.731Z,95024.06
2022-08-20T06:13:20.058Z,95013.00
2022-08-20T06:16:06.831Z,94967.25
2022-08-20T06:18:54.151Z,94953.06
2022-08-20T06:21:44.015Z,95021.63
2022-08-20T06:24:30.604Z,95046.88
2022-08-20T06:27:16.785Z,95016.16
2022-08-20T06:30:02.622Z,94940.03
2022-08-20T06:32:50.901Z,94950.28
2022-08-20T06:35:37.895Z,94961.34
2022-08-20T06:38:23.727Z,94928.97
2022-08-20T06:41:09.567Z,94925.47
2022-08-20T06:43:55.512Z,94941.25
2022-08-20T06:46:43.658Z,94936.13
2022-08-20T06:49:35.346Z,94932.56
2022-08-20T06:52:28.619Z,94916.78
2022-08-20T06:55:27.636Z,94939.72
2022-08-20T06:58:15.720Z,94957.09
2022-08-20T07:01:21.319Z,94964.19
2022-08-20T07:04:08.486Z,94970.91
2022-08-20T07:06:55.464Z,94974.47
2022-08-20T07:09:41.474Z,94965.41
2022-08-20T07:12:27.382Z,94953.94
2022-08-20T07:15:14.487Z,94928.28
2022-08-20T07:18:02.107Z,94911.34
2022-08-20T07:20:48.242Z,94919.16
2022-08-20T07:23:34.166Z,94912.03
2022-08-20T07:26:20.475Z,94921.47
2022-08-20T07:29:06.682Z,94930.91
2022-08-20T07:32:11.028Z,94940.34
2022-08-20T07:34:57.288Z,94937.22
2022-08-20T07:37:46.591Z,94942.72
2022-08-20T07:40:34.995Z,94932.44
2022-08-20T07:43:23.207Z,94949.72
2022-08-20T07:46:10.186Z,94950.50
2022-08-20T07:48:56.200Z,94943.38
2022-08-20T07:51:42.207Z,94962.69
2022-08-20T07:54:30.477Z,94976.47
2022-08-20T07:57:17.396Z,94989.06
2022-08-20T08:00:05.479Z,94975.59
2022-08-20T08:02:54.338Z,94968.16
2022-08-20T08:05:42.415Z,94977.91
2022-08-20T08:08:29.197Z,94975.06
2022-08-20T08:11:17.026Z,94978.59
2022-08-20T08:14:06.323Z,94978.59
2022-08-20T08:16:54.517Z,94982.13
2022-08-20T08:19:49.191Z,94978.16
2022-08-20T08:22:35.126Z,94966.22
2022-08-20T08:25:24.211Z,94963.44
2022-08-20T08:28:13.741Z,94948.75
2022-08-20T08:30:59.790Z,94943.19
2022-08-20T08:33:47.826Z,94942.78
2022-08-20T08:36:33.802Z,94941.91
2022-08-20T08:39:19.906Z,94951.28
2022-08-20T08:42:42.591Z,94953.72
2022-08-20T08:45:35.851Z,94958.75
2022-08-20T08:48:23.388Z,94942.53
2022-08-20T08:51:12.572Z,94951.47
2022-08-20T08:54:01.146Z,94955.31
2022-08-20T08:56:53.396Z,94952.88
2022-08-20T08:59:48.434Z,94953.53
2022-08-20T09:03:01.123Z,94968.06
2022-08-20T09:05:53.230Z,94965.66
2022-08-20T09:08:54.661Z,94976.97
2022-08-20T09:11:50.789Z,94984.47
2022-08-20T09:14:38.612Z,94983.66
2022-08-20T09:17:24.883Z,94978.13
2022-08-20T09:20:11.558Z,94970.91
2022-08-20T09:22:57.810Z,94974.41
2022-08-20T09:25:43.913Z,94977.06
2022-08-20T09:28:32.498Z,94985.72
2022-08-20T09:31:21.867Z,94979.47
2022-08-20T09:34:09.027Z,94991.28
2022-08-20T09:36:54.953Z,94992.84
2022-08-20T09:39:41.667Z,94998.44
2022-08-20T09:42:40.244Z,95004.00
2022-08-20T09:45:27.102Z,95020.63
2022-08-20T09:48:13.376Z,95021.94
2022-08-20T09:50:59.616Z,95013.31
2022-08-20T09:53:46.449Z,95002.63
2022-08-20T09:56:34.717Z,95001.84
2022-08-20T09:59:20.755Z,95001.84
2022-08-20T10:02:06.942Z,95014.44
2022-08-20T10:04:52.919Z,95016.03
2022-08-20T10:07:40.336Z,95024.31
2022-08-20T10:10:26.497Z,95028.66
2022-08-20T10:13:13.367Z,95026.28
2022-08-20T10:16:01.232Z,95030.25
2022-08-20T10:18:49.308Z,95022.69
2022-08-20T10:21:38.629Z,95019.06
2022-08-20T10:24:25.388Z,95015.94
2022-08-20T10:27:11.390Z,95022.56
2022-08-20T10:29:57.251Z,95018.59
2022-08-20T10:32:43.076Z,95017.44
2022-08-20T10:35:29.440Z,95018.22
2022-08-20T10:38:15.517Z,95025.34
2022-08-20T10:41:01.245Z,95023.75
2022-08-20T10:43:47.801Z,95034.06
2022-08-20T10:46:34.299Z,95043.56
2022-08-20T10:49:20.273Z,95064.13
2022-08-20T10:52:07.148Z,95069.75
2022-08-20T10:54:55.524Z,95075.00
2022-08-20T10:57:41.890Z,95085.31
2022-08-20T11:00:30.054Z,95080.97
2022-08-20T11:03:15.994Z,95068.81
2022-08-20T11:06:02.957Z,95071.50
2022-08-20T11:08:49.708Z,95063.16
2022-08-20T11:11:35.576Z,95059.97
2022-08-20T11:14:21.216Z,95065.03
2022-08-20T11:17:08.130Z,95059.81
2022-08-20T11:19:57.323Z,95052.19
2022-08-20T11:22:44.499Z,95037.44
2022-08-20T11:25:30.457Z,95041.75
2022-08-20T11:28:16.447Z,95045.97
2022-08-20T11:31:18.139Z,95055.84
2022-08-20T11:34:07.334Z,95040.84
2022-08-20T11:36:55.408Z,95042.81
2022-08-20T11:39:43.047Z,95034.50
2022-08-20T11:42:28.787Z,95028.25
2022-08-20T11:45:15.162Z,95025.53
2022-08-20T11:48:01.273Z,95051.25
2022-08-20T11:50:48.449Z,95077.00
2022-08-20T11:53:34.317Z,95071.19
2022-08-20T11:56:24.000Z,95097.81
2022-08-20T11:59:13.073Z,95099.06
2022-08-20T12:02:03.240Z,95095.22
2022-08-20T12:04:49.829Z,95089.78
2022-08-20T12:07:35.926Z,95081.22
2022-08-20T12:10:23.228Z,95076.50
2022-08-20T12:13:09.481Z,95077.38
2022-08-20T12:15:55.967Z,95056.84
2022-08-20T12:18:42.140Z,95076.63
2022-08-20T12:21:32.295Z,95098.19
2022-08-20T12:24:18.418Z,95128.97
2022-08-20T12:27:15.795Z,95099.84
2022-08-20T12:30:04.583Z,95051.72
2022-08-20T12:32:50.828Z,95026.50
2022-08-20T12:35:36.661Z,95028.88
2022-08-20T12:38:23.012Z,95029.78
2022-08-20T12:41:09.094Z,95003.34
2022-08-20T12:43:55.045Z,94999.81
2022-08-20T12:46:40.942Z,94987.66
2022-08-20T12:49:27.844Z,94977.81
2022-08-20T12:52:15.138Z,94973.50
2022-08-20T12:55:01.845Z,94967.25
2022-08-20T12:57:56.682Z,94972.03
2022-08-20T13:00:51.014Z,94979.53
2022-08-20T13:03:43.163Z,94984.25
2022-08-20T13:06:31.358Z,94983.88
2022-08-20T13:09:18.128Z,94978.00
2022-08-20T13:12:04.445Z,94965.00
2022-08-20T13:14:51.629Z,94953.63
2022-08-20T13:17:39.188Z,94980.09
2022-08-20T13:20:33.990Z,94990.72
2022-08-20T13:23:21.334Z,94983.25
2022-08-20T13:26:07.346Z,94978.59
2022-08-20T13:28:53.170Z,94981.31
2022-08-20T13:31:39.167Z,94982.06
2022-08-20T13:34:25.285Z,94981.97
2022-08-20T13:37:15.792Z,94960.53
2022-08-20T13:40:02.135Z,94972.06
2022-08-20T13:42:47.877Z,94960.72
2022-08-20T13:45:34.053Z,94969.50
2022-08-20T13:48:20.280Z,94974.19
2022-08-20T13:51:07.044Z,94969.22
2022-08-20T13:53:53.859Z,94958.72
2022-08-20T13:56:39.962Z,94953.81
2022-08-20T13:59:26.310Z,94952.78
2022-08-20T14:02:13.158Z,94961.47
2022-08-20T14:04:59.260Z,94968.56
2022-08-20T14:07:46.684Z,94962.88
2022-08-20T14:10:33.114Z,94952.81
2022-08-20T14:13:21.207Z,94946.59
2022-08-20T14:16:07.247Z,94951.16
2022-08-20T14:19:15.451Z,94946.22
2022-08-20T14:22:01.224Z,94946.97
2022-08-20T14:24:47.921Z,94939.91
2022-08-20T14:27:34.146Z,94938.69
2022-08-20T14:30:29.763Z,94935.88
2022-08-20T14:33:17.563Z,94945.16
2022-08-20T14:36:04.483Z,94940.16
2022-08-20T14:38:50.261Z,94940.81
2022-08-20T14:41:36.274Z,94947.06
2022-08-20T14:44:22.030Z,94943.03
2022-08-20T14:47:19.165Z,94946.16
2022-08-20T14:50:12.130Z,94941.47
2022-08-20T14:52:58.806Z,94938.00
2022-08-20T14:55:44.731Z,94941.28
2022-08-20T14:58:30.810Z,94930.56
2022-08-20T15:01:16.840Z,94929.13
2022-08-20T16:13:48.603Z,94949.22
2022-08-20T16:17:01.878Z,94936.19
2022-08-20T16:20:09.695Z,94938.44
2022-08-20T16:22:56.083Z,94937.50
2022-08-20T16:25:54.661Z,94936.97
2022-08-20T16:29:11.258Z,94928.63
2022-08-20T16:32:32.942Z,94931.19
2022-08-20T16:35:32.562Z,94944.88
2022-08-20T16:38:21.103Z,94944.25
2022-08-20T16:41:13.872Z,94948.47
2022-08-20T16:44:06.666Z,94945.84
2022-08-20T16:46:56.614Z,94956.25
2022-08-20T16:49:48.295Z,94952.06
2022-08-20T16:52:34.269Z,94944.72
2022-08-20T16:55:22.250Z,94948.81
2022-08-20T16:58:08.439Z,94948.59
2022-08-20T17:01:12.808Z,94945.25
2022-08-20T17:03:59.290Z,94954.78
2022-08-20T17:06:48.332Z,94954.97
2022-08-20T17:09:43.505Z,94962.22
2022-08-20T17:12:33.866Z,94975.34
2022-08-20T17:15:27.895Z,94985.78
2022-08-20T17:18:25.880Z,94988.31
2022-08-20T17:21:11.683Z,94997.09
2022-08-20T17:24:00.461Z,94982.63
2022-08-20T17:26:49.961Z,94991.75
2022-08-20T17:30:28.894Z,94993.47
2022-08-20T17:33:36.015Z,95008.56
2022-08-20T17:36:25.985Z,95005.84
2022-08-20T17:39:19.047Z,95004.75
2022-08-20T17:42:14.192Z,94997.63
2022-08-20T17:45:27.637Z,95002.88
2022-08-20T17:48:16.438Z,95005.25
2022-08-20T17:51:17.144Z,95001.34
2022-08-20T17:54:21.734Z,95002.19
2022-08-20T17:57:15.886Z,94993.16
2022-08-20T18:00:07.106Z,94986.84
2022-08-20T18:03:17.607Z,94983.78
2022-08-20T18:06:11.016Z,94996.84
2022-08-20T18:09:21.654Z,95000.44
2022-08-20T18:12:27.895Z,95004.41
2022-08-20T18:15:24.679Z,95013.22
2022-08-20T18:18:17.814Z,95006.13
2022-08-20T18:21:28.605Z,95006.53
2022-08-20T18:24:30.655Z,95009.41
2022-08-20T18:27:25.341Z,95014.56
2022-08-20T18:30:26.872Z,95020.09
2022-08-20T18:33:27.797Z,95016.69
2022-08-20T18:36:19.699Z,95025.34
2022-08-20T18:39:09.735Z,95021.88
2022-08-20T18:42:03.174Z,95023.84
2022-08-20T18:44:52.194Z,95023.13
2022-08-20T18:47:38.281Z,95035.00
2022-08-20T18:50:42.914Z,95035.88
2022-08-20T18:53:34.198Z,95044.97
2022-08-20T18:56:39.518Z,95043.00
2022-08-20T18:59:33.058Z,95045.38
2022-08-20T19:02:34.784Z,95047.38
2022-08-20T19:05:38.715Z,95043.91
2022-08-20T19:08:36.183Z,95042.34
2022-08-20T19:11:44.150Z,95039.19
2022-08-20T19:14:43.424Z,95045.53
2022-08-20T19:18:12.818Z,95044.78
2022-08-20T19:21:00.710Z,95047.59
2022-08-20T19:23:49.490Z,95054.28
2022-08-20T19:26:44.903Z,95046.41
2022-08-20T19:29:42.338Z,95036.63
2022-08-20T19:32:32.786Z,95042.91
2022-08-20T19:35:19.024Z,95044.91
2022-08-20T19:38:08.094Z,95048.06
2022-08-20T19:41:11.414Z,95047.69
2022-08-20T19:44:04.296Z,95045.72
2022-08-20T19:46:50.525Z,95041.78
2022-08-20T19:49:49.452Z,95040.22
2022-08-20T19:53:12.893Z,95036.34
2022-08-20T19:56:02.326Z,95033.19
2022-08-20T19:59:02.094Z,95036.75
2022-08-20T20:02:03.116Z,95032.88
2022-08-20T20:04:54.812Z,95035.63
2022-08-20T20:07:58.515Z,95028.56
2022-08-20T20:10:51.098Z,95026.59
2022-08-20T20:13:45.221Z,95036.47
2022-08-20T20:16:32.003Z,95018.34
2022-08-20T20:19:27.808Z,95033.31
2022-08-20T20:22:31.045Z,95030.59
2022-08-20T20:25:17.074Z,95032.56
2022-08-20T20:28:20.257Z,95031.78
2022-08-20T20:31:08.603Z,95022.72
2022-08-20T20:33:59.929Z,95018.41
2022-08-20T20:36:47.359Z,95022.00
2022-08-20T20:39:37.127Z,95028.72
2022-08-20T20:42:28.552Z,95033.47
2022-08-20T20:45:18.644Z,95027.22
2022-08-20T20:48:40.306Z,95026.44
2022-08-20T20:51:30.857Z,95026.44
2022-08-20T20:54:44.263Z,95031.97
2022-08-20T20:57:37.969Z,95017.84
2022-08-20T21:00:28.865Z,95035.97
2022-08-20T21:03:14.981Z,95039.94
2022-08-20T21:06:01.308Z,95028.13
2022-08-20T21:08:47.450Z,95035.28
2022-08-20T21:11:33.261Z,95033.69
2022-08-20T21:14:23.631Z,95034.50
2022-08-20T21:17:40.785Z,95035.28
2022-08-20T21:20:27.074Z,95036.88
2022-08-20T21:23:13.171Z,95036.88
2022-08-20T21:26:00.554Z,95038.06
2022-08-20T21:28:46.398Z,95026.28
2022-08-20T21:31:43.663Z,95019.56
2022-08-20T21:34:30.297Z,95025.88
2022-08-20T21:37:17.821Z,95025.09
2022-08-20T21:40:04.826Z,95016.84
2022-08-20T21:42:51.267Z,95020.00
2022-08-20T21:45:37.666Z,95020.44
2022-08-20T21:48:23.771Z,95018.06
2022-08-20T21:51:09.570Z,95015.69
2022-08-20T21:53:55.521Z,95013.31
2022-08-20T21:56:42.084Z,95014.50
2022-08-20T21:59:28.169Z,95006.66
2022-08-20T22:02:15.791Z,95005.50
2022-08-20T22:05:01.741Z,95004.72
2022-08-20T22:07:47.791Z,95011.81
2022-08-20T22:10:34.086Z,95010.25
2022-08-20T22:13:21.682Z,95005.91
2022-08-20T22:16:09.834Z,95000.00
2022-08-20T22:18:55.768Z,94998.44
2022-08-20T22:21:41.638Z,95003.94
2022-08-20T22:24:29.037Z,94995.31
2022-08-20T22:27:15.149Z,94996.09
2022-08-20T22:30:00.984Z,94995.31
2022-08-20T22:32:51.849Z,94991.38
2022-08-20T22:35:51.704Z,94996.16
2022-08-20T22:38:37.577Z,94998.53
2022-08-20T22:41:23.645Z,95006.03
2022-08-20T22:44:10.225Z,95000.13
2022-08-20T22:47:00.920Z,94995.00
2022-08-20T22:49:47.055Z,95000.94
2022-08-20T22:52:33.278Z,95000.94
2022-08-20T22:55:20.067Z,95009.22
2022-08-20T22:58:05.950Z,94995.44
2022-08-20T23:00:53.689Z,95007.66
2022-08-20T23:03:41.170Z,95004.09
2022-08-20T23:06:27.888Z,95000.97
2022-08-20T23:09:13.494Z,95006.09
2022-08-20T23:11:59.422Z,95004.91
2022-08-20T23:14:45.695Z,95009.66
2022-08-20T23:17:32.073Z,95006.91
2022-08-20T23:20:18.698Z,95004.94
2022-08-20T23:23:05.365Z,95005.72
2022-08-20T23:25:51.495Z,94997.84
2022-08-20T23:28:37.738Z,94993.53
2022-08-20T23:31:23.834Z,94997.84
2022-08-20T23:34:10.247Z,95000.22
2022-08-20T23:36:57.068Z,94993.94
2022-08-20T23:39:46.269Z,95000.25
2022-08-20T23:42:32.699Z,94994.31
2022-08-20T23:45:18.786Z,94996.31
2022-08-20T23:48:04.986Z,94995.94
2022-08-20T23:50:51.097Z,94988.84
2022-08-20T23:53:37.838Z,94988.06
2022-08-20T23:56:23.564Z,94986.88
2022-08-20T23:59:09.813Z,94985.31
